sensor_id;sensor_type;location;lat;lon;timestamp;pressure;altitude;pressure_sealevel;temperature;humidity
43503;BME280;29098;48.184;16.298;2023-04-23T00:01:04;98807.25;;;11.26;81.99
43503;BME280;29098;48.184;16.298;2023-04-23T00:03:31;98782.81;;;11.04;82.35
43503;BME280;29098;48.184;16.298;2023-04-23T00:05:58;98793.81;;;11.14;82.22
43503;BME280;29098;48.184;16.298;2023-04-23T00:08:25;98797.63;;;10.98;83.07
43503;BME280;29098;48.184;16.298;2023-04-23T00:10:51;98770.75;;;10.67;84.40
43503;BME280;29098;48.184;16.298;2023-04-23T00:13:16;98810.06;;;11.18;83.31
43503;BME280;29098;48.184;16.298;2023-04-23T00:15:42;98811.81;;;10.90;84.37
43503;BME280;29098;48.184;16.298;2023-04-23T00:18:08;98795.81;;;10.99;83.65
43503;BME280;29098;48.184;16.298;2023-04-23T00:20:34;98767.69;;;10.71;84.25
43503;BME280;29098;48.184;16.298;2023-04-23T00:23:00;98810.56;;;10.86;85.24
43503;BME280;29098;48.184;16.298;2023-04-23T00:25:25;98794.91;;;10.78;85.11
43503;BME280;29098;48.184;16.298;2023-04-23T00:27:51;98773.41;;;10.81;84.81
43503;BME280;29098;48.184;16.298;2023-04-23T00:30:20;98819.22;;;10.73;85.19
43503;BME280;29098;48.184;16.298;2023-04-23T00:32:45;98802.16;;;10.69;85.13
43503;BME280;29098;48.184;16.298;2023-04-23T00:35:11;98775.44;;;10.72;84.82
43503;BME280;29098;48.184;16.298;2023-04-23T00:37:37;98798.94;;;10.74;85.80
43503;BME280;29098;48.184;16.298;2023-04-23T00:40:03;98807.66;;;10.74;85.58
43503;BME280;29098;48.184;16.298;2023-04-23T00:42:28;98769.31;;;10.72;85.42
43503;BME280;29098;48.184;16.298;2023-04-23T00:44:54;98776.31;;;10.51;85.35
43503;BME280;29098;48.184;16.298;2023-04-23T00:47:21;98742.91;;;10.58;85.64
43503;BME280;29098;48.184;16.298;2023-04-23T00:49:47;98779.69;;;10.80;85.21
43503;BME280;29098;48.184;16.298;2023-04-23T00:52:14;98770.75;;;10.67;84.55
43503;BME280;29098;48.184;16.298;2023-04-23T00:54:40;98775.78;;;10.62;85.22
43503;BME280;29098;48.184;16.298;2023-04-23T00:57:05;98785.19;;;10.78;84.36
43503;BME280;29098;48.184;16.298;2023-04-23T00:59:32;98749.25;;;10.71;83.90
43503;BME280;29098;48.184;16.298;2023-04-23T01:01:58;98779.91;;;10.78;83.87
43503;BME280;29098;48.184;16.298;2023-04-23T01:04:26;98774.25;;;10.88;83.44
43503;BME280;29098;48.184;16.298;2023-04-23T01:06:54;98777.84;;;10.74;84.13
43503;BME280;29098;48.184;16.298;2023-04-23T01:09:20;98773.69;;;10.51;84.70
43503;BME280;29098;48.184;16.298;2023-04-23T01:11:47;98782.22;;;10.53;85.26
43503;BME280;29098;48.184;16.298;2023-04-23T01:14:15;98778.47;;;10.40;85.52
43503;BME280;29098;48.184;16.298;2023-04-23T01:16:40;98796.91;;;10.40;86.95
43503;BME280;29098;48.184;16.298;2023-04-23T01:19:08;98786.44;;;10.47;86.30
43503;BME280;29098;48.184;16.298;2023-04-23T01:21:35;98780.97;;;10.49;85.88
43503;BME280;29098;48.184;16.298;2023-04-23T01:24:02;98725.81;;;10.05;87.15
43503;BME280;29098;48.184;16.298;2023-04-23T01:26:28;98779.47;;;10.33;86.88
43503;BME280;29098;48.184;16.298;2023-04-23T01:28:54;98781.28;;;10.39;87.26
43503;BME280;29098;48.184;16.298;2023-04-23T01:31:20;98791.03;;;10.38;87.08
43503;BME280;29098;48.184;16.298;2023-04-23T01:33:46;98761.22;;;10.31;87.31
43503;BME280;29098;48.184;16.298;2023-04-23T01:36:13;98785.88;;;10.23;87.40
43503;BME280;29098;48.184;16.298;2023-04-23T01:38:39;98776.47;;;10.07;89.00
43503;BME280;29098;48.184;16.298;2023-04-23T01:41:05;98785.22;;;10.14;88.99
43503;BME280;29098;48.184;16.298;2023-04-23T01:43:30;98741.47;;;10.13;88.24
43503;BME280;29098;48.184;16.298;2023-04-23T01:45:57;98727.78;;;9.68;90.47
43503;BME280;29098;48.184;16.298;2023-04-23T01:48:23;98783.94;;;10.04;90.19
43503;BME280;29098;48.184;16.298;2023-04-23T01:50:50;98777.47;;;10.06;89.73
43503;BME280;29098;48.184;16.298;2023-04-23T01:53:16;98761.81;;;9.98;90.01
43503;BME280;29098;48.184;16.298;2023-04-23T01:55:44;98740.41;;;9.79;90.02
43503;BME280;29098;48.184;16.298;2023-04-23T01:58:11;98754.16;;;9.75;90.89
43503;BME280;29098;48.184;16.298;2023-04-23T02:00:36;98778.03;;;9.73;91.39
43503;BME280;29098;48.184;16.298;2023-04-23T02:03:02;98752.72;;;9.50;92.43
43503;BME280;29098;48.184;16.298;2023-04-23T02:05:27;98740.13;;;9.67;91.71
43503;BME280;29098;48.184;16.298;2023-04-23T02:07:53;98778.03;;;9.73;91.92
43503;BME280;29098;48.184;16.298;2023-04-23T02:10:19;98751.78;;;9.58;91.86
43503;BME280;29098;48.184;16.298;2023-04-23T02:12:45;98766.00;;;9.42;93.13
43503;BME280;29098;48.184;16.298;2023-04-23T02:15:12;98767.59;;;9.58;92.57
43503;BME280;29098;48.184;16.298;2023-04-23T02:17:38;98787.31;;;9.47;93.95
43503;BME280;29098;48.184;16.298;2023-04-23T02:20:07;98761.88;;;9.54;92.47
43503;BME280;29098;48.184;16.298;2023-04-23T02:22:38;98761.41;;;9.44;93.52
43503;BME280;29098;48.184;16.298;2023-04-23T02:25:05;98773.69;;;9.37;94.90
43503;BME280;29098;48.184;16.298;2023-04-23T02:27:32;98774.28;;;9.61;93.21
43503;BME280;29098;48.184;16.298;2023-04-23T02:29:57;98774.66;;;9.57;93.30
43503;BME280;29098;48.184;16.298;2023-04-23T02:32:23;98783.06;;;9.46;93.98
43503;BME280;29098;48.184;16.298;2023-04-23T02:34:49;98767.28;;;9.24;95.69
43503;BME280;29098;48.184;16.298;2023-04-23T02:37:14;98769.97;;;9.31;94.80
43503;BME280;29098;48.184;16.298;2023-04-23T02:39:40;98782.69;;;9.49;93.87
43503;BME280;29098;48.184;16.298;2023-04-23T02:42:05;98792.72;;;9.39;94.57
43503;BME280;29098;48.184;16.298;2023-04-23T02:44:31;98771.53;;;9.25;95.30
43503;BME280;29098;48.184;16.298;2023-04-23T02:46:57;98773.28;;;9.18;95.76
43503;BME280;29098;48.184;16.298;2023-04-23T02:49:22;98791.25;;;9.14;96.37
43503;BME280;29098;48.184;16.298;2023-04-23T02:51:48;98783.50;;;9.28;95.56
43503;BME280;29098;48.184;16.298;2023-04-23T02:54:13;98787.03;;;9.20;95.71
43503;BME280;29098;48.184;16.298;2023-04-23T02:56:39;98750.72;;;9.09;95.65
43503;BME280;29098;48.184;16.298;2023-04-23T02:59:04;98727.81;;;9.02;95.25
43503;BME280;29098;48.184;16.298;2023-04-23T03:01:30;98750.00;;;9.15;95.56
43503;BME280;29098;48.184;16.298;2023-04-23T03:03:56;98770.16;;;9.08;95.71
43503;BME280;29098;48.184;16.298;2023-04-23T03:06:22;98780.72;;;9.14;95.68
43503;BME280;29098;48.184;16.298;2023-04-23T03:08:48;98777.78;;;9.24;95.19
43503;BME280;29098;48.184;16.298;2023-04-23T03:11:13;98738.19;;;8.89;95.67
43503;BME280;29098;48.184;16.298;2023-04-23T03:13:38;98776.72;;;9.18;95.13
43503;BME280;29098;48.184;16.298;2023-04-23T03:16:04;98752.53;;;8.86;97.13
43503;BME280;29098;48.184;16.298;2023-04-23T03:18:30;98763.81;;;9.02;96.34
43503;BME280;29098;48.184;16.298;2023-04-23T03:20:55;98741.84;;;8.73;97.49
43503;BME280;29098;48.184;16.298;2023-04-23T03:23:21;98752.16;;;8.89;96.75
43503;BME280;29098;48.184;16.298;2023-04-23T03:25:47;98774.34;;;8.87;97.69
43503;BME280;29098;48.184;16.298;2023-04-23T03:28:12;98759.13;;;8.82;97.18
43503;BME280;29098;48.184;16.298;2023-04-23T03:30:38;98783.53;;;8.76;97.95
43503;BME280;29098;48.184;16.298;2023-04-23T03:33:03;98747.56;;;8.76;97.43
43503;BME280;29098;48.184;16.298;2023-04-23T03:35:29;98781.09;;;8.74;98.07
43503;BME280;29098;48.184;16.298;2023-04-23T03:37:55;98757.38;;;8.53;99.10
43503;BME280;29098;48.184;16.298;2023-04-23T03:40:20;98746.50;;;8.56;98.03
43503;BME280;29098;48.184;16.298;2023-04-23T03:42:46;98754.66;;;8.61;98.61
43503;BME280;29098;48.184;16.298;2023-04-23T03:45:12;98784.91;;;8.72;98.26
43503;BME280;29098;48.184;16.298;2023-04-23T03:47:38;98779.97;;;8.39;100.00
43503;BME280;29098;48.184;16.298;2023-04-23T03:50:05;98772.47;;;8.35;100.00
43503;BME280;29098;48.184;16.298;2023-04-23T03:52:31;98769.03;;;8.35;100.00
43503;BME280;29098;48.184;16.298;2023-04-23T03:54:56;98777.63;;;8.44;100.00
43503;BME280;29098;48.184;16.298;2023-04-23T03:57:22;98785.06;;;8.40;100.00
43503;BME280;29098;48.184;16.298;2023-04-23T03:59:47;98782.72;;;8.45;100.00
43503;BME280;29098;48.184;16.298;2023-04-23T04:02:13;98789.59;;;8.46;100.00
43503;BME280;29098;48.184;16.298;2023-04-23T04:04:38;98784.25;;;8.25;100.00
43503;BME280;29098;48.184;16.298;2023-04-23T04:07:04;98786.16;;;8.31;100.00
43503;BME280;29098;48.184;16.298;2023-04-23T04:09:31;98800.31;;;8.60;100.00
43503;BME280;29098;48.184;16.298;2023-04-23T04:11:57;98792.69;;;8.65;99.61
43503;BME280;29098;48.184;16.298;2023-04-23T04:14:22;98810.00;;;8.74;99.22
43503;BME280;29098;48.184;16.298;2023-04-23T04:16:48;98800.88;;;8.55;100.00
43503;BME280;29098;48.184;16.298;2023-04-23T04:19:14;98800.50;;;8.58;100.00
43503;BME280;29098;48.184;16.298;2023-04-23T04:21:40;98794.41;;;8.73;99.73
43503;BME280;29098;48.184;16.298;2023-04-23T04:24:05;98792.75;;;8.87;98.40
43503;BME280;29098;48.184;16.298;2023-04-23T04:26:31;98785.53;;;8.74;98.47
43503;BME280;29098;48.184;16.298;2023-04-23T04:28:57;98808.63;;;8.48;100.00
43503;BME280;29098;48.184;16.298;2023-04-23T04:31:24;98797.66;;;8.45;100.00
43503;BME280;29098;48.184;16.298;2023-04-23T04:33:53;98803.53;;;8.77;99.43
43503;BME280;29098;48.184;16.298;2023-04-23T04:36:19;98789.59;;;8.76;99.13
43503;BME280;29098;48.184;16.298;2023-04-23T04:38:45;98806.06;;;8.85;98.96
43503;BME280;29098;48.184;16.298;2023-04-23T04:41:10;98807.91;;;8.85;98.72
43503;BME280;29098;48.184;16.298;2023-04-23T04:43:37;98824.03;;;8.82;99.39
43503;BME280;29098;48.184;16.298;2023-04-23T04:46:03;98820.28;;;9.06;98.19
43503;BME280;29098;48.184;16.298;2023-04-23T04:48:29;98816.28;;;9.10;97.81
43503;BME280;29098;48.184;16.298;2023-04-23T04:50:55;98814.06;;;8.92;98.59
43503;BME280;29098;48.184;16.298;2023-04-23T04:53:21;98829.63;;;9.09;97.61
43503;BME280;29098;48.184;16.298;2023-04-23T04:55:46;98807.47;;;9.18;96.68
43503;BME280;29098;48.184;16.298;2023-04-23T04:58:12;98844.44;;;9.16;97.05
43503;BME280;29098;48.184;16.298;2023-04-23T05:00:38;98843.25;;;9.34;96.11
43503;BME280;29098;48.184;16.298;2023-04-23T05:03:03;98838.94;;;9.48;95.17
43503;BME280;29098;48.184;16.298;2023-04-23T05:05:31;98833.56;;;9.56;94.90
43503;BME280;29098;48.184;16.298;2023-04-23T05:07:57;98837.69;;;9.66;93.83
43503;BME280;29098;48.184;16.298;2023-04-23T05:10:26;98845.13;;;9.62;93.65
43503;BME280;29098;48.184;16.298;2023-04-23T05:12:52;98840.09;;;9.82;92.79
43503;BME280;29098;48.184;16.298;2023-04-23T05:15:17;98831.94;;;9.77;92.84
43503;BME280;29098;48.184;16.298;2023-04-23T05:17:43;98830.31;;;9.76;92.54
43503;BME280;29098;48.184;16.298;2023-04-23T05:20:09;98857.72;;;9.89;94.12
43503;BME280;29098;48.184;16.298;2023-04-23T05:22:39;98825.69;;;9.85;91.66
43503;BME280;29098;48.184;16.298;2023-04-23T05:25:09;98855.16;;;10.17;90.35
43503;BME280;29098;48.184;16.298;2023-04-23T05:27:39;98843.34;;;10.13;91.11
43503;BME280;29098;48.184;16.298;2023-04-23T05:30:07;98858.69;;;10.31;88.79
43503;BME280;29098;48.184;16.298;2023-04-23T05:32:34;98816.28;;;10.26;90.15
43503;BME280;29098;48.184;16.298;2023-04-23T05:35:00;98822.25;;;10.41;87.72
43503;BME280;29098;48.184;16.298;2023-04-23T05:37:27;98853.56;;;10.51;88.17
43503;BME280;29098;48.184;16.298;2023-04-23T05:39:53;98839.88;;;10.63;86.92
43503;BME280;29098;48.184;16.298;2023-04-23T05:42:18;98865.25;;;10.77;87.19
43503;BME280;29098;48.184;16.298;2023-04-23T05:44:44;98833.78;;;10.69;87.05
43503;BME280;29098;48.184;16.298;2023-04-23T05:47:10;98827.75;;;10.75;85.82
43503;BME280;29098;48.184;16.298;2023-04-23T05:49:36;98829.59;;;10.75;86.03
43503;BME280;29098;48.184;16.298;2023-04-23T05:52:02;98841.66;;;11.04;83.99
43503;BME280;29098;48.184;16.298;2023-04-23T05:54:28;98835.38;;;11.12;83.58
43503;BME280;29098;48.184;16.298;2023-04-23T05:56:53;98858.34;;;11.18;83.11
43503;BME280;29098;48.184;16.298;2023-04-23T05:59:19;98849.00;;;11.16;83.80
43503;BME280;29098;48.184;16.298;2023-04-23T06:01:45;98878.72;;;11.38;83.83
43503;BME280;29098;48.184;16.298;2023-04-23T06:04:12;98846.25;;;11.44;80.79
43503;BME280;29098;48.184;16.298;2023-04-23T06:06:37;98849.50;;;11.46;80.24
43503;BME280;29098;48.184;16.298;2023-04-23T06:09:03;98854.00;;;11.66;80.07
43503;BME280;29098;48.184;16.298;2023-04-23T06:11:29;98852.81;;;11.75;80.08
43503;BME280;29098;48.184;16.298;2023-04-23T06:13:56;98857.06;;;11.76;80.28
43503;BME280;29098;48.184;16.298;2023-04-23T06:16:24;98832.50;;;11.69;79.08
43503;BME280;29098;48.184;16.298;2023-04-23T06:18:50;98830.06;;;11.88;78.49
43503;BME280;29098;48.184;16.298;2023-04-23T06:21:15;98835.75;;;11.98;78.87
43503;BME280;29098;48.184;16.298;2023-04-23T06:23:41;98876.81;;;12.14;77.05
43503;BME280;29098;48.184;16.298;2023-04-23T06:26:06;98857.31;;;12.09;75.93
43503;BME280;29098;48.184;16.298;2023-04-23T06:28:32;98849.78;;;12.32;75.53
43503;BME280;29098;48.184;16.298;2023-04-23T06:30:57;98863.81;;;12.40;75.02
43503;BME280;29098;48.184;16.298;2023-04-23T06:33:23;98854.41;;;12.57;73.09
43503;BME280;29098;48.184;16.298;2023-04-23T06:35:48;98839.38;;;12.51;72.56
43503;BME280;29098;48.184;16.298;2023-04-23T06:38:14;98854.41;;;12.57;72.07
43503;BME280;29098;48.184;16.298;2023-04-23T06:40:40;98846.66;;;12.69;71.81
43503;BME280;29098;48.184;16.298;2023-04-23T06:43:05;98867.81;;;12.76;71.67
43503;BME280;29098;48.184;16.298;2023-04-23T06:45:32;98853.53;;;12.91;70.00
43503;BME280;29098;48.184;16.298;2023-04-23T06:47:59;98835.78;;;12.98;70.60
43503;BME280;29098;48.184;16.298;2023-04-23T06:50:25;98854.19;;;13.25;70.17
43503;BME280;29098;48.184;16.298;2023-04-23T06:52:51;98866.34;;;13.39;69.83
43503;BME280;29098;48.184;16.298;2023-04-23T06:55:17;98849.19;;;13.55;69.25
43503;BME280;29098;48.184;16.298;2023-04-23T06:57:43;98849.44;;;13.73;69.34
43503;BME280;29098;48.184;16.298;2023-04-23T07:00:09;98832.38;;;13.68;69.29
43503;BME280;29098;48.184;16.298;2023-04-23T07:02:36;98873.38;;;13.91;68.50
43503;BME280;29098;48.184;16.298;2023-04-23T07:05:02;98853.94;;;13.97;67.56
43503;BME280;29098;48.184;16.298;2023-04-23T07:07:28;98861.47;;;14.26;66.24
43503;BME280;29098;48.184;16.298;2023-04-23T07:09:53;98859.63;;;14.27;66.34
43503;BME280;29098;48.184;16.298;2023-04-23T07:12:19;98868.53;;;14.32;65.82
43503;BME280;29098;48.184;16.298;2023-04-23T07:14:44;98856.03;;;14.39;65.64
43503;BME280;29098;48.184;16.298;2023-04-23T07:17:09;98819.91;;;14.45;64.44
43503;BME280;29098;48.184;16.298;2023-04-23T07:19:36;98840.81;;;14.72;64.21
43503;BME280;29098;48.184;16.298;2023-04-23T07:22:01;98830.44;;;14.89;62.47
43503;BME280;29098;48.184;16.298;2023-04-23T07:24:27;98831.34;;;15.02;62.51
43503;BME280;29098;48.184;16.298;2023-04-23T07:26:53;98851.22;;;15.42;61.87
43503;BME280;29098;48.184;16.298;2023-04-23T07:29:18;98859.59;;;15.57;61.30
43503;BME280;29098;48.184;16.298;2023-04-23T07:31:44;98851.81;;;15.86;60.66
43503;BME280;29098;48.184;16.298;2023-04-23T07:34:10;98831.84;;;15.96;60.72
43503;BME280;29098;48.184;16.298;2023-04-23T07:36:36;98850.72;;;16.42;57.39
43503;BME280;29098;48.184;16.298;2023-04-23T07:39:02;98851.75;;;16.53;56.50
43503;BME280;29098;48.184;16.298;2023-04-23T07:41:28;98821.66;;;16.52;56.57
43503;BME280;29098;48.184;16.298;2023-04-23T07:43:54;98852.75;;;16.76;56.14
43503;BME280;29098;48.184;16.298;2023-04-23T07:46:20;98828.22;;;16.74;56.06
43503;BME280;29098;48.184;16.298;2023-04-23T07:48:45;98856.97;;;17.01;54.85
43503;BME280;29098;48.184;16.298;2023-04-23T07:51:11;98843.13;;;17.28;54.88
43503;BME280;29098;48.184;16.298;2023-04-23T07:53:36;98831.63;;;17.39;53.51
43503;BME280;29098;48.184;16.298;2023-04-23T07:56:02;98859.44;;;17.60;53.58
43503;BME280;29098;48.184;16.298;2023-04-23T07:58:27;98831.09;;;17.88;52.50
43503;BME280;29098;48.184;16.298;2023-04-23T08:00:53;98872.03;;;18.11;52.49
43503;BME280;29098;48.184;16.298;2023-04-23T08:03:18;98817.19;;;18.03;52.59
43503;BME280;29098;48.184;16.298;2023-04-23T08:05:44;98817.28;;;18.26;51.50
43503;BME280;29098;48.184;16.298;2023-04-23T08:08:11;98847.72;;;18.47;51.31
43503;BME280;29098;48.184;16.298;2023-04-23T08:10:37;98854.34;;;18.44;50.70
43503;BME280;29098;48.184;16.298;2023-04-23T08:13:02;98845.91;;;18.30;51.15
43503;BME280;29098;48.184;16.298;2023-04-23T08:15:28;98818.31;;;17.73;53.16
43503;BME280;29098;48.184;16.298;2023-04-23T08:17:54;98867.91;;;17.74;52.79
43503;BME280;29098;48.184;16.298;2023-04-23T08:20:19;98847.31;;;17.23;52.95
43503;BME280;29098;48.184;16.298;2023-04-23T08:22:45;98866.75;;;17.24;54.12
43503;BME280;29098;48.184;16.298;2023-04-23T08:25:10;98867.75;;;17.06;54.90
43503;BME280;29098;48.184;16.298;2023-04-23T08:27:37;98868.09;;;16.97;56.09
43503;BME280;29098;48.184;16.298;2023-04-23T08:30:04;98836.00;;;16.63;54.41
43503;BME280;29098;48.184;16.298;2023-04-23T08:32:30;98847.59;;;16.98;54.96
43503;BME280;29098;48.184;16.298;2023-04-23T08:34:56;98855.47;;;17.05;54.46
43503;BME280;29098;48.184;16.298;2023-04-23T08:37:23;98851.66;;;17.01;55.28
43503;BME280;29098;48.184;16.298;2023-04-23T08:39:48;98821.13;;;17.03;55.19
43503;BME280;29098;48.184;16.298;2023-04-23T08:42:23;98838.06;;;17.26;55.38
43503;BME280;29098;48.184;16.298;2023-04-23T08:44:51;98824.56;;;17.04;55.50
43503;BME280;29098;48.184;16.298;2023-04-23T08:47:23;98808.22;;;17.12;56.17
43503;BME280;29098;48.184;16.298;2023-04-23T08:49:52;98848.81;;;17.48;54.79
43503;BME280;29098;48.184;16.298;2023-04-23T08:52:22;98819.53;;;17.48;53.71
43503;BME280;29098;48.184;16.298;2023-04-23T08:54:51;98838.94;;;17.61;54.96
43503;BME280;29098;48.184;16.298;2023-04-23T08:57:17;98843.59;;;17.71;53.67
43503;BME280;29098;48.184;16.298;2023-04-23T08:59:44;98812.09;;;17.67;54.26
43503;BME280;29098;48.184;16.298;2023-04-23T09:02:10;98809.19;;;17.86;54.50
43503;BME280;29098;48.184;16.298;2023-04-23T09:04:37;98843.06;;;18.20;53.74
43503;BME280;29098;48.184;16.298;2023-04-23T09:07:02;98798.75;;;18.02;53.21
43503;BME280;29098;48.184;16.298;2023-04-23T09:09:37;98823.97;;;18.28;53.36
43503;BME280;29098;48.184;16.298;2023-04-23T09:12:06;98844.06;;;18.53;51.98
43503;BME280;29098;48.184;16.298;2023-04-23T09:14:33;98848.63;;;18.35;52.05
43503;BME280;29098;48.184;16.298;2023-04-23T09:16:59;98797.06;;;18.30;51.65
43503;BME280;29098;48.184;16.298;2023-04-23T09:19:26;98831.63;;;18.42;52.45
43503;BME280;29098;48.184;16.298;2023-04-23T09:21:56;98800.13;;;18.39;53.11
43503;BME280;29098;48.184;16.298;2023-04-23T09:24:22;98832.78;;;18.68;52.25
43503;BME280;29098;48.184;16.298;2023-04-23T09:26:49;98836.63;;;18.78;50.87
43503;BME280;29098;48.184;16.298;2023-04-23T09:29:16;98831.66;;;18.86;51.92
43503;BME280;29098;48.184;16.298;2023-04-23T09:31:47;98841.72;;;19.24;51.63
43503;BME280;29098;48.184;16.298;2023-04-23T09:34:17;98828.69;;;19.33;51.20
43503;BME280;29098;48.184;16.298;2023-04-23T09:36:44;98787.47;;;19.23;50.54
43503;BME280;29098;48.184;16.298;2023-04-23T09:39:12;98790.56;;;19.42;52.79
43503;BME280;29098;48.184;16.298;2023-04-23T09:41:38;98812.50;;;19.44;51.12
43503;BME280;29098;48.184;16.298;2023-04-23T09:44:03;98796.44;;;19.39;51.25
43503;BME280;29098;48.184;16.298;2023-04-23T09:46:32;98814.16;;;19.51;51.05
43503;BME280;29098;48.184;16.298;2023-04-23T09:49:00;98778.19;;;19.31;51.03
43503;BME280;29098;48.184;16.298;2023-04-23T09:51:26;98800.19;;;19.38;51.20
43503;BME280;29098;48.184;16.298;2023-04-23T09:53:52;98817.72;;;19.56;53.06
43503;BME280;29098;48.184;16.298;2023-04-23T09:56:19;98804.16;;;19.36;51.18
43503;BME280;29098;48.184;16.298;2023-04-23T09:58:45;98814.31;;;19.34;51.67
43503;BME280;29098;48.184;16.298;2023-04-23T10:01:11;98828.13;;;19.58;52.09
43503;BME280;29098;48.184;16.298;2023-04-23T10:03:42;98771.69;;;19.54;52.22
43503;BME280;29098;48.184;16.298;2023-04-23T10:06:14;98823.72;;;19.74;49.68
43503;BME280;29098;48.184;16.298;2023-04-23T10:08:40;98818.22;;;19.86;49.93
43503;BME280;29098;48.184;16.298;2023-04-23T10:11:06;98788.19;;;19.79;49.47
43503;BME280;29098;48.184;16.298;2023-04-23T10:13:34;98777.84;;;19.93;50.35
43503;BME280;29098;48.184;16.298;2023-04-23T10:16:00;98783.41;;;20.19;49.82
43503;BME280;29098;48.184;16.298;2023-04-23T10:18:29;98769.84;;;20.41;47.89
43503;BME280;29098;48.184;16.298;2023-04-23T10:20:57;98774.09;;;20.37;47.37
43503;BME280;29098;48.184;16.298;2023-04-23T10:23:23;98788.16;;;20.65;47.13
43503;BME280;29098;48.184;16.298;2023-04-23T10:25:50;98731.63;;;20.51;47.68
43503;BME280;29098;48.184;16.298;2023-04-23T10:28:18;98744.34;;;20.97;47.84
43503;BME280;29098;48.184;16.298;2023-04-23T10:30:52;98756.97;;;21.07;45.91
43503;BME280;29098;48.184;16.298;2023-04-23T10:33:19;98787.78;;;21.10;45.62
43503;BME280;29098;48.184;16.298;2023-04-23T10:35:46;98746.38;;;20.64;45.75
43503;BME280;29098;48.184;16.298;2023-04-23T10:38:13;98771.72;;;21.10;45.73
43503;BME280;29098;48.184;16.298;2023-04-23T10:40:42;98735.53;;;21.48;43.53
43503;BME280;29098;48.184;16.298;2023-04-23T10:43:09;98746.00;;;21.76;43.96
43503;BME280;29098;48.184;16.298;2023-04-23T10:45:35;98759.59;;;22.26;45.06
43503;BME280;29098;48.184;16.298;2023-04-23T10:48:03;98726.13;;;22.64;43.46
43503;BME280;29098;48.184;16.298;2023-04-23T10:50:31;98749.81;;;23.07;43.11
43503;BME280;29098;48.184;16.298;2023-04-23T10:53:00;98707.19;;;23.24;42.81
43503;BME280;29098;48.184;16.298;2023-04-23T10:55:30;98731.25;;;23.05;39.88
43503;BME280;29098;48.184;16.298;2023-04-23T10:58:04;98749.03;;;23.41;39.78
43503;BME280;29098;48.184;16.298;2023-04-23T11:00:43;98734.44;;;24.31;39.08
43503;BME280;29098;48.184;16.298;2023-04-23T11:03:30;98746.66;;;24.23;36.55
43503;BME280;29098;48.184;16.298;2023-04-23T11:06:02;98704.59;;;24.66;36.98
43503;BME280;29098;48.184;16.298;2023-04-23T11:08:29;98712.78;;;25.51;37.22
43503;BME280;29098;48.184;16.298;2023-04-23T11:10:59;98737.19;;;25.41;34.89
43503;BME280;29098;48.184;16.298;2023-04-23T11:13:26;98735.50;;;25.64;33.61
43503;BME280;29098;48.184;16.298;2023-04-23T11:16:20;98722.19;;;25.68;33.34
43503;BME280;29098;48.184;16.298;2023-04-23T11:18:55;98717.91;;;25.67;33.68
43503;BME280;29098;48.184;16.298;2023-04-23T11:21:21;98688.69;;;25.22;35.62
43503;BME280;29098;48.184;16.298;2023-04-23T11:23:46;98731.75;;;25.27;35.32
43503;BME280;29098;48.184;16.298;2023-04-23T11:26:16;98702.31;;;26.34;35.08
43503;BME280;29098;48.184;16.298;2023-04-23T11:28:42;98720.72;;;26.97;33.14
43503;BME280;29098;48.184;16.298;2023-04-23T11:31:09;98690.13;;;26.22;32.71
43503;BME280;29098;48.184;16.298;2023-04-23T11:33:37;98674.22;;;25.79;33.55
43503;BME280;29098;48.184;16.298;2023-04-23T11:36:02;98703.41;;;26.05;33.61
43503;BME280;29098;48.184;16.298;2023-04-23T11:38:31;98706.03;;;26.10;34.17
43503;BME280;29098;48.184;16.298;2023-04-23T11:41:03;98683.44;;;25.44;33.82
43503;BME280;29098;48.184;16.298;2023-04-23T11:43:29;98699.94;;;25.10;34.40
43503;BME280;29098;48.184;16.298;2023-04-23T11:45:54;98666.72;;;24.76;34.41
43503;BME280;29098;48.184;16.298;2023-04-23T11:48:22;98690.94;;;24.81;34.33
43503;BME280;29098;48.184;16.298;2023-04-23T11:50:48;98674.91;;;23.84;36.54
43503;BME280;29098;48.184;16.298;2023-04-23T11:53:13;98661.75;;;24.06;35.35
43503;BME280;29098;48.184;16.298;2023-04-23T11:55:39;98647.88;;;24.57;34.92
43503;BME280;29098;48.184;16.298;2023-04-23T11:58:08;98651.97;;;24.35;34.68
43503;BME280;29098;48.184;16.298;2023-04-23T12:00:34;98659.50;;;24.14;35.62
43503;BME280;29098;48.184;16.298;2023-04-23T12:03:01;98688.06;;;24.15;35.79
43503;BME280;29098;48.184;16.298;2023-04-23T12:05:31;98682.34;;;23.67;36.13
43503;BME280;29098;48.184;16.298;2023-04-23T12:10:50;98660.16;;;23.51;37.60
43503;BME280;29098;48.184;16.298;2023-04-23T12:13:27;98637.94;;;23.70;37.10
43503;BME280;29098;48.184;16.298;2023-04-23T12:16:01;98654.69;;;24.11;36.58
43503;BME280;29098;48.184;16.298;2023-04-23T12:20:52;98646.59;;;25.07;35.46
43503;BME280;29098;48.184;16.298;2023-04-23T12:23:18;98659.22;;;25.73;34.69
43503;BME280;29098;48.184;16.298;2023-04-23T12:25:52;98666.09;;;26.07;33.34
43503;BME280;29098;48.184;16.298;2023-04-23T12:28:22;98631.13;;;26.02;32.60
43503;BME280;29098;48.184;16.298;2023-04-23T12:30:48;98662.81;;;26.24;33.40
43503;BME280;29098;48.184;16.298;2023-04-23T12:33:13;98650.81;;;25.88;32.12
43503;BME280;29098;48.184;16.298;2023-04-23T12:35:48;98645.72;;;26.01;33.23
43503;BME280;29098;48.184;16.298;2023-04-23T12:38:25;98648.31;;;25.92;33.60
43503;BME280;29098;48.184;16.298;2023-04-23T12:40:52;98636.63;;;25.68;32.77
43503;BME280;29098;48.184;16.298;2023-04-23T12:43:18;98627.94;;;25.99;32.83
43503;BME280;29098;48.184;16.298;2023-04-23T12:45:43;98632.88;;;26.20;32.89
43503;BME280;29098;48.184;16.298;2023-04-23T12:48:09;98623.41;;;26.23;32.85
43503;BME280;29098;48.184;16.298;2023-04-23T12:50:35;98609.41;;;26.21;31.46
43503;BME280;29098;48.184;16.298;2023-04-23T12:53:02;98610.00;;;26.04;31.71
43503;BME280;29098;48.184;16.298;2023-04-23T12:55:27;98642.97;;;26.29;30.40